createdAt,value
2023-03-11T00:01:21.158Z,1.90
2023-03-11T00:03:58.124Z,2.13
2023-03-11T00:06:24.795Z,2.53
2023-03-11T00:08:52.297Z,2.15
2023-03-11T00:11:19.720Z,2.00
2023-03-11T00:13:46.081Z,2.85
2023-03-11T00:16:12.597Z,2.45
2023-03-11T00:18:41.817Z,2.47
2023-03-11T00:21:16.236Z,2.20
2023-03-11T00:23:42.748Z,2.33
2023-03-11T00:26:09.213Z,2.30
2023-03-11T00:28:36.006Z,2.40
2023-03-11T00:31:03.345Z,2.30
2023-03-11T00:33:31.604Z,2.05
2023-03-11T00:35:58.349Z,2.65
2023-03-11T00:38:24.823Z,2.45
2023-03-11T00:40:52.150Z,2.50
2023-03-11T00:43:20.785Z,2.58
2023-03-11T00:45:47.663Z,2.10
2023-03-11T00:48:15.093Z,1.75
2023-03-11T00:50:43.829Z,2.42
2023-03-11T00:53:10.838Z,1.88
2023-03-11T00:55:37.201Z,2.20
2023-03-11T00:58:05.470Z,2.13
2023-03-11T01:00:32.262Z,1.90
2023-03-11T01:03:01.710Z,1.92
2023-03-11T01:05:31.528Z,1.95
2023-03-11T01:07:59.081Z,2.00
2023-03-11T01:10:26.032Z,2.08
2023-03-11T01:12:55.526Z,2.58
2023-03-11T01:15:29.314Z,1.73
2023-03-11T01:17:56.790Z,1.90
2023-03-11T01:20:23.760Z,1.90
2023-03-11T01:22:51.091Z,2.05
2023-03-11T01:25:19.979Z,1.70
2023-03-11T01:27:46.565Z,2.20
2023-03-11T01:30:21.892Z,1.60
2023-03-11T01:32:48.730Z,1.70
2023-03-11T12:31:12.186Z,0.95
2023-03-11T12:33:51.548Z,0.90
2023-03-11T12:36:29.312Z,1.10
2023-03-11T12:38:56.123Z,1.00
2023-03-11T12:41:42.109Z,1.00
2023-03-11T12:44:31.295Z,1.20
2023-03-11T12:46:59.953Z,0.82
2023-03-11T12:49:35.938Z,0.73
2023-03-11T12:52:11.721Z,0.80
2023-03-11T12:54:40.492Z,0.98
2023-03-11T12:57:16.042Z,0.70
2023-03-11T13:00:22.779Z,1.15
2023-03-11T13:03:27.080Z,1.10
2023-03-11T13:06:20.881Z,1.50
2023-03-11T13:08:58.252Z,0.95
2023-03-11T13:11:33.396Z,0.80
2023-03-11T13:14:16.084Z,0.88
2023-03-11T13:16:44.587Z,0.70
2023-03-11T13:19:25.916Z,0.80
2023-03-11T13:22:00.155Z,0.73
2023-03-11T13:24:29.192Z,0.80
2023-03-11T13:26:58.416Z,0.73
2023-03-11T13:32:49.876Z,0.77
2023-03-11T13:36:20.505Z,1.23
2023-03-11T13:39:22.258Z,0.80
2023-03-11T13:41:48.983Z,1.30
2023-03-11T13:44:28.550Z,0.95
2023-03-11T13:47:02.028Z,0.98
2023-03-11T13:49:45.277Z,1.02
2023-03-11T13:52:22.109Z,0.80
2023-03-11T13:54:55.504Z,0.98
2023-03-11T13:57:33.177Z,0.90
2023-03-11T14:00:17.776Z,0.85
2023-03-11T14:02:48.388Z,1.75
2023-03-11T14:05:19.195Z,1.70
2023-03-11T14:07:45.669Z,0.90
2023-03-11T14:10:11.945Z,0.88
2023-03-11T14:12:39.998Z,1.00
2023-03-11T14:15:09.372Z,1.15
2023-03-11T14:17:35.903Z,1.20
2023-03-11T14:20:11.836Z,1.42
2023-03-11T14:22:38.400Z,0.90
2023-03-11T14:25:09.496Z,0.90
2023-03-11T14:27:38.474Z,1.00
2023-03-11T14:30:06.693Z,1.20
2023-03-11T14:32:36.269Z,0.90
2023-03-11T14:35:19.327Z,1.02
2023-03-11T14:37:45.675Z,1.00
2023-03-11T14:40:25.700Z,1.10
2023-03-11T14:42:55.721Z,1.02
2023-03-11T14:45:26.273Z,1.08
2023-03-11T14:48:02.319Z,0.98
2023-03-11T14:50:31.904Z,1.10
2023-03-11T14:53:04.605Z,1.10
2023-03-11T14:55:41.436Z,1.10
2023-03-11T14:58:23.780Z,1.02
2023-03-11T15:03:26.078Z,1.10
2023-03-11T15:05:56.694Z,1.00
2023-03-11T15:08:28.284Z,0.90
2023-03-11T15:11:18.998Z,0.90
2023-03-11T15:13:53.118Z,0.80
2023-03-11T15:16:34.642Z,0.90
2023-03-11T15:19:20.764Z,0.95
2023-03-11T15:21:48.818Z,0.80
2023-03-11T15:24:27.916Z,0.90
2023-03-11T15:27:05.198Z,1.00
2023-03-11T15:29:33.036Z,1.00
2023-03-11T15:31:59.993Z,1.20
2023-03-11T15:34:30.529Z,1.10
2023-03-11T15:37:00.020Z,1.00
2023-03-11T15:39:47.591Z,2.00
2023-03-11T15:42:21.910Z,1.60
2023-03-11T15:44:53.543Z,0.80
2023-03-11T15:47:22.250Z,1.00
2023-03-11T15:49:49.790Z,1.65
2023-03-11T15:52:19.259Z,1.33
2023-03-11T15:54:55.045Z,1.20
2023-03-11T15:57:28.159Z,1.10
2023-03-11T15:59:57.918Z,1.20
2023-03-11T16:02:27.075Z,1.42
2023-03-11T16:04:54.090Z,1.25
2023-03-11T16:07:36.499Z,1.10
2023-03-11T16:10:05.523Z,1.45
2023-03-11T16:12:31.919Z,1.10
2023-03-11T16:14:58.571Z,0.90
2023-03-11T16:17:25.048Z,1.30
2023-03-11T16:19:51.991Z,1.67
2023-03-11T16:22:27.527Z,1.20
2023-03-11T16:24:54.336Z,1.15
2023-03-11T16:27:20.717Z,1.10
2023-03-11T16:29:47.176Z,1.17
2023-03-11T16:32:13.763Z,1.33
2023-03-11T16:34:40.296Z,1.10
2023-03-11T16:37:08.070Z,1.48
2023-03-11T16:39:34.896Z,1.40
2023-03-11T16:42:01.878Z,1.30
2023-03-11T16:44:28.378Z,1.60
2023-03-11T16:46:55.120Z,1.40
2023-03-11T16:49:21.627Z,1.35
2023-03-11T16:51:48.072Z,1.00
2023-03-11T16:54:14.966Z,0.90
2023-03-11T16:56:42.779Z,1.60
2023-03-11T16:59:09.194Z,1.77
2023-03-11T17:01:38.460Z,1.63
2023-03-11T17:04:07.907Z,1.80
2023-03-11T17:06:34.731Z,2.40
2023-03-11T17:09:02.503Z,1.75
2023-03-11T17:11:30.576Z,2.67
2023-03-11T17:14:10.053Z,1.73
2023-03-11T17:16:41.805Z,2.03
2023-03-11T17:19:08.266Z,5.07
2023-03-11T17:21:35.425Z,6.43
2023-03-11T17:24:01.800Z,5.20
2023-03-11T17:26:30.767Z,5.25
2023-03-11T17:28:57.410Z,6.45
2023-03-11T17:31:24.022Z,3.20
2023-03-11T17:33:51.121Z,3.92
2023-03-11T17:36:18.290Z,2.70
2023-03-11T17:38:46.714Z,3.00
2023-03-11T17:41:15.262Z,3.05
2023-03-11T17:43:42.372Z,3.03
2023-03-11T17:46:14.268Z,2.83
2023-03-11T17:48:42.186Z,3.28
2023-03-11T17:51:11.090Z,2.50
2023-03-11T17:53:43.853Z,2.70
2023-03-11T17:56:13.419Z,2.35
2023-03-11T17:58:40.516Z,2.67
2023-03-11T18:01:13.375Z,3.22
2023-03-11T18:03:39.906Z,3.97
2023-03-11T18:06:06.742Z,3.92
2023-03-11T18:08:35.369Z,3.85
2023-03-11T18:11:08.099Z,3.42
2023-03-11T18:13:35.500Z,4.07
2023-03-11T18:16:17.252Z,3.60
2023-03-11T18:18:44.412Z,3.67
2023-03-11T18:21:21.116Z,3.45
2023-03-11T18:23:53.532Z,2.13
2023-03-11T18:26:20.221Z,2.25
2023-03-11T18:28:46.667Z,4.63
2023-03-11T18:31:16.928Z,5.57
2023-03-11T18:33:48.400Z,4.45
2023-03-11T18:36:37.697Z,4.95
2023-03-11T18:39:06.191Z,4.88
2023-03-11T18:41:34.989Z,4.70
2023-03-11T18:44:01.620Z,3.85
2023-03-11T18:46:33.569Z,4.53
2023-03-11T18:49:01.714Z,4.93
2023-03-11T18:51:30.387Z,5.90
2023-03-11T18:53:57.321Z,5.60
2023-03-11T18:56:23.697Z,5.63
2023-03-11T18:58:50.552Z,5.63
2023-03-11T19:01:20.445Z,9.20
2023-03-11T19:03:55.579Z,12.88
2023-03-11T19:06:22.985Z,12.57
2023-03-11T19:08:49.759Z,14.57
2023-03-11T19:11:20.833Z,12.85
2023-03-11T19:13:48.212Z,11.10
2023-03-11T19:16:19.402Z,9.38
2023-03-11T19:18:53.758Z,8.25
2023-03-11T19:21:20.616Z,8.90
2023-03-11T19:23:53.046Z,7.15
2023-03-11T19:26:25.690Z,7.35
2023-03-11T19:28:57.159Z,7.45
2023-03-11T19:31:23.568Z,6.85
2023-03-11T19:33:51.349Z,5.93
2023-03-11T19:36:18.582Z,5.25
2023-03-11T19:38:45.137Z,5.50
2023-03-11T19:41:14.491Z,5.60
2023-03-11T19:43:42.902Z,5.47
2023-03-11T19:46:12.391Z,5.57
2023-03-11T19:48:38.904Z,5.00
2023-03-11T19:51:08.457Z,4.45
2023-03-11T19:53:36.386Z,4.50
2023-03-11T19:56:05.090Z,4.22
2023-03-11T19:58:31.939Z,3.38
2023-03-11T20:00:59.372Z,4.65
2023-03-11T20:03:32.899Z,5.47
2023-03-11T20:06:05.616Z,7.78
2023-03-11T20:08:36.585Z,3.90
2023-03-11T20:11:05.482Z,4.00
2023-03-11T20:13:33.686Z,5.28
2023-03-11T20:16:08.080Z,4.97
2023-03-11T20:18:34.696Z,4.45
2023-03-11T20:21:05.619Z,4.20
2023-03-11T20:23:32.784Z,4.80
2023-03-11T20:25:59.349Z,4.25
2023-03-11T20:28:27.154Z,3.17
2023-03-11T20:30:54.297Z,3.28
2023-03-11T20:33:20.731Z,3.58
2023-03-11T20:35:47.167Z,2.90
2023-03-11T20:38:13.840Z,2.88
2023-03-11T20:40:40.838Z,3.40
2023-03-11T20:43:08.856Z,4.25
2023-03-11T20:45:35.475Z,4.25
2023-03-11T20:48:03.481Z,5.05
2023-03-11T20:50:31.499Z,6.28
2023-03-11T20:52:57.967Z,7.30
2023-03-11T20:55:25.565Z,7.97
2023-03-11T20:57:54.474Z,7.35
2023-03-11T21:00:24.210Z,6.78
2023-03-11T21:02:51.063Z,6.55
2023-03-11T21:05:20.335Z,6.35
2023-03-11T21:07:48.218Z,6.28
2023-03-11T21:10:16.735Z,6.82
2023-03-11T21:12:43.347Z,6.40
2023-03-11T21:15:11.179Z,7.97
2023-03-11T21:17:37.657Z,7.20
2023-03-11T21:20:06.337Z,5.13
2023-03-11T21:22:33.481Z,4.72
2023-03-11T21:24:59.872Z,4.57
2023-03-11T21:27:26.587Z,4.63
2023-03-11T21:29:54.322Z,5.28
2023-03-11T21:32:22.322Z,5.65
2023-03-11T21:34:49.118Z,5.25
2023-03-11T21:37:15.699Z,4.93
2023-03-11T21:39:42.162Z,4.85
2023-03-11T21:42:08.704Z,5.13
2023-03-11T21:44:35.211Z,4.70
2023-03-11T21:47:01.797Z,4.45
2023-03-11T21:49:28.329Z,4.03
2023-03-11T21:51:56.325Z,3.88
2023-03-11T21:54:22.816Z,4.57
2023-03-11T21:56:49.286Z,4.07
2023-03-11T21:59:16.075Z,3.85
2023-03-11T22:01:42.657Z,4.47
2023-03-11T22:04:09.517Z,4.57
2023-03-11T22:06:35.915Z,4.32
2023-03-11T22:09:03.279Z,3.45
2023-03-11T22:11:29.904Z,3.70
2023-03-11T22:13:57.279Z,2.83
2023-03-11T22:16:24.997Z,2.55
2023-03-11T22:18:51.747Z,2.15
2023-03-11T22:21:20.506Z,2.70
2023-03-11T22:23:47.926Z,2.67
2023-03-11T22:26:15.761Z,2.47
2023-03-11T22:28:45.624Z,2.38
2023-03-11T22:31:14.675Z,2.00
2023-03-11T22:33:41.475Z,1.95
2023-03-11T22:36:09.188Z,2.70
2023-03-11T22:38:41.908Z,2.38
2023-03-11T22:41:08.472Z,2.50
2023-03-11T22:43:35.500Z,2.50
2023-03-11T22:46:02.649Z,2.42
2023-03-11T22:48:29.142Z,2.38
2023-03-11T22:50:56.156Z,2.30
2023-03-11T22:53:24.772Z,2.83
2023-03-11T22:55:53.172Z,2.97
2023-03-11T22:58:20.753Z,2.40
2023-03-11T23:00:47.420Z,2.40
2023-03-11T23:03:15.148Z,2.90
2023-03-11T23:05:42.445Z,2.30
2023-03-11T23:08:16.807Z,2.17
2023-03-11T23:10:45.418Z,2.13
2023-03-11T23:13:12.505Z,2.35
2023-03-11T23:15:44.626Z,2.97
2023-03-11T23:20:42.714Z,2.35
2023-03-11T23:23:09.936Z,2.47
2023-03-11T23:25:36.473Z,2.45
2023-03-11T23:28:04.367Z,2.42
2023-03-11T23:30:31.629Z,2.95
2023-03-11T23:32:59.091Z,2.17
2023-03-11T23:35:26.350Z,2.70
2023-03-11T23:37:52.840Z,2.70
2023-03-11T23:40:19.243Z,2.75
2023-03-11T23:42:45.638Z,1.92
2023-03-11T23:45:12.176Z,2.90
2023-03-11T23:47:38.506Z,3.15
2023-03-11T23:50:05.686Z,2.85
2023-03-11T23:52:35.002Z,2.90
2023-03-11T23:55:01.528Z,2.35
2023-03-11T23:57:28.148Z,3.05
2023-03-11T23:59:56.865Z,2.85
